sensor_id;sensor_type;location;lat;lon;timestamp;P1;durP1;ratioP1;P2;durP2;ratioP2
30934;SDS011;51033;42.648;23.292;2023-07-31T00:01:04;3.65;;;2.58;;
30934;SDS011;51033;42.648;23.292;2023-07-31T00:03:29;5.10;;;2.67;;
30934;SDS011;51033;42.648;23.292;2023-07-31T00:05:55;3.22;;;2.83;;
30934;SDS011;51033;42.648;23.292;2023-07-31T00:08:20;5.90;;;2.92;;
30934;SDS011;51033;42.648;23.292;2023-07-31T00:10:46;2.80;;;2.60;;
30934;SDS011;51033;42.648;23.292;2023-07-31T00:13:11;3.20;;;2.50;;
30934;SDS011;51033;42.648;23.292;2023-07-31T00:15:37;3.33;;;3.03;;
30934;SDS011;51033;42.648;23.292;2023-07-31T00:18:02;2.92;;;2.67;;
30934;SDS011;51033;42.648;23.292;2023-07-31T00:20:27;4.18;;;2.65;;
30934;SDS011;51033;42.648;23.292;2023-07-31T00:22:53;3.20;;;2.65;;
30934;SDS011;51033;42.648;23.292;2023-07-31T00:25:18;6.00;;;3.53;;
30934;SDS011;51033;42.648;23.292;2023-07-31T00:27:46;3.25;;;2.95;;
30934;SDS011;51033;42.648;23.292;2023-07-31T00:30:11;4.35;;;3.17;;
30934;SDS011;51033;42.648;23.292;2023-07-31T00:32:37;4.38;;;3.30;;
30934;SDS011;51033;42.648;23.292;2023-07-31T00:35:02;4.28;;;3.25;;
30934;SDS011;51033;42.648;23.292;2023-07-31T00:37:28;3.70;;;2.92;;
30934;SDS011;51033;42.648;23.292;2023-07-31T00:39:53;3.78;;;3.38;;
30934;SDS011;51033;42.648;23.292;2023-07-31T00:42:19;4.03;;;3.60;;
30934;SDS011;51033;42.648;23.292;2023-07-31T00:44:45;3.63;;;3.33;;
30934;SDS011;51033;42.648;23.292;2023-07-31T00:47:10;3.97;;;3.58;;
30934;SDS011;51033;42.648;23.292;2023-07-31T00:49:36;4.15;;;3.78;;
30934;SDS011;51033;42.648;23.292;2023-07-31T00:52:01;5.10;;;4.60;;
30934;SDS011;51033;42.648;23.292;2023-07-31T00:54:27;5.55;;;5.05;;
30934;SDS011;51033;42.648;23.292;2023-07-31T00:56:53;6.10;;;5.55;;
30934;SDS011;51033;42.648;23.292;2023-07-31T00:59:19;7.28;;;6.57;;
30934;SDS011;51033;42.648;23.292;2023-07-31T01:01:45;8.52;;;7.22;;
30934;SDS011;51033;42.648;23.292;2023-07-31T01:04:11;8.95;;;8.05;;
30934;SDS011;51033;42.648;23.292;2023-07-31T01:07:25;9.35;;;8.52;;
30934;SDS011;51033;42.648;23.292;2023-07-31T01:09:42;9.43;;;8.52;;
30934;SDS011;51033;42.648;23.292;2023-07-31T01:12:14;9.63;;;8.63;;
30934;SDS011;51033;42.648;23.292;2023-07-31T01:14:50;12.82;;;11.05;;
30934;SDS011;51033;42.648;23.292;2023-07-31T01:17:16;13.63;;;12.05;;
30934;SDS011;51033;42.648;23.292;2023-07-31T01:19:41;17.95;;;14.30;;
30934;SDS011;51033;42.648;23.292;2023-07-31T01:25:21;16.83;;;15.15;;
30934;SDS011;51033;42.648;23.292;2023-07-31T01:27:57;16.85;;;15.02;;
30934;SDS011;51033;42.648;23.292;2023-07-31T01:30:27;18.08;;;16.23;;
30934;SDS011;51033;42.648;23.292;2023-07-31T01:33:00;18.85;;;16.85;;
30934;SDS011;51033;42.648;23.292;2023-07-31T01:35:31;20.85;;;18.35;;
30934;SDS011;51033;42.648;23.292;2023-07-31T01:37:59;22.30;;;19.52;;
30934;SDS011;51033;42.648;23.292;2023-07-31T01:40:25;21.92;;;19.73;;
30934;SDS011;51033;42.648;23.292;2023-07-31T01:42:51;21.92;;;19.73;;
30934;SDS011;51033;42.648;23.292;2023-07-31T01:45:16;24.17;;;21.35;;
30934;SDS011;51033;42.648;23.292;2023-07-31T01:47:41;22.02;;;18.85;;
30934;SDS011;51033;42.648;23.292;2023-07-31T01:50:07;22.58;;;20.27;;
30934;SDS011;51033;42.648;23.292;2023-07-31T01:52:32;24.85;;;22.27;;
30934;SDS011;51033;42.648;23.292;2023-07-31T01:54:58;23.45;;;20.98;;
30934;SDS011;51033;42.648;23.292;2023-07-31T01:57:23;22.10;;;19.90;;
30934;SDS011;51033;42.648;23.292;2023-07-31T01:59:49;24.73;;;21.40;;
30934;SDS011;51033;42.648;23.292;2023-07-31T02:02:15;22.23;;;20.00;;
30934;SDS011;51033;42.648;23.292;2023-07-31T02:04:41;24.70;;;22.05;;
30934;SDS011;51033;42.648;23.292;2023-07-31T02:07:06;23.25;;;20.80;;
30934;SDS011;51033;42.648;23.292;2023-07-31T02:09:32;23.98;;;21.48;;
30934;SDS011;51033;42.648;23.292;2023-07-31T02:11:57;23.65;;;21.15;;
30934;SDS011;51033;42.648;23.292;2023-07-31T02:14:22;24.75;;;22.15;;
30934;SDS011;51033;42.648;23.292;2023-07-31T02:16:48;23.98;;;20.85;;
30934;SDS011;51033;42.648;23.292;2023-07-31T02:19:13;23.00;;;20.65;;
30934;SDS011;51033;42.648;23.292;2023-07-31T02:21:38;24.02;;;21.52;;
30934;SDS011;51033;42.648;23.292;2023-07-31T02:24:04;22.67;;;20.45;;
30934;SDS011;51033;42.648;23.292;2023-07-31T02:26:29;22.98;;;20.58;;
30934;SDS011;51033;42.648;23.292;2023-07-31T02:28:55;21.90;;;19.80;;
30934;SDS011;51033;42.648;23.292;2023-07-31T02:31:20;22.80;;;19.83;;
30934;SDS011;51033;42.648;23.292;2023-07-31T02:33:45;25.15;;;21.67;;
30934;SDS011;51033;42.648;23.292;2023-07-31T02:36:11;26.55;;;20.95;;
30934;SDS011;51033;42.648;23.292;2023-07-31T02:38:36;22.92;;;20.38;;
30934;SDS011;51033;42.648;23.292;2023-07-31T02:41:01;22.95;;;20.52;;
30934;SDS011;51033;42.648;23.292;2023-07-31T02:43:27;22.77;;;20.42;;
30934;SDS011;51033;42.648;23.292;2023-07-31T02:45:52;23.15;;;20.67;;
30934;SDS011;51033;42.648;23.292;2023-07-31T02:48:18;24.88;;;22.17;;
30934;SDS011;51033;42.648;23.292;2023-07-31T02:50:44;24.20;;;21.60;;
30934;SDS011;51033;42.648;23.292;2023-07-31T02:53:10;24.50;;;21.83;;
30934;SDS011;51033;42.648;23.292;2023-07-31T02:55:35;24.33;;;20.95;;
30934;SDS011;51033;42.648;23.292;2023-07-31T02:58:01;24.10;;;21.52;;
30934;SDS011;51033;42.648;23.292;2023-07-31T03:00:26;24.67;;;22.08;;
30934;SDS011;51033;42.648;23.292;2023-07-31T03:02:51;25.60;;;21.67;;
30934;SDS011;51033;42.648;23.292;2023-07-31T03:05:17;24.08;;;21.58;;
30934;SDS011;51033;42.648;23.292;2023-07-31T03:07:42;23.50;;;21.00;;
30934;SDS011;51033;42.648;23.292;2023-07-31T03:10:08;23.55;;;21.13;;
30934;SDS011;51033;42.648;23.292;2023-07-31T03:12:33;25.45;;;21.45;;
30934;SDS011;51033;42.648;23.292;2023-07-31T03:14:59;23.77;;;21.17;;
30934;SDS011;51033;42.648;23.292;2023-07-31T03:17:24;22.92;;;20.40;;
30934;SDS011;51033;42.648;23.292;2023-07-31T03:19:49;21.92;;;19.63;;
30934;SDS011;51033;42.648;23.292;2023-07-31T03:22:15;25.00;;;21.25;;
30934;SDS011;51033;42.648;23.292;2023-07-31T03:24:40;24.85;;;22.02;;
30934;SDS011;51033;42.648;23.292;2023-07-31T03:27:05;23.05;;;20.65;;
30934;SDS011;51033;42.648;23.292;2023-07-31T03:29:31;26.08;;;22.48;;
30934;SDS011;51033;42.648;23.292;2023-07-31T03:31:56;23.75;;;21.05;;
30934;SDS011;51033;42.648;23.292;2023-07-31T03:34:22;25.63;;;21.65;;
30934;SDS011;51033;42.648;23.292;2023-07-31T03:36:47;25.33;;;22.40;;
30934;SDS011;51033;42.648;23.292;2023-07-31T03:39:13;24.30;;;20.73;;
30934;SDS011;51033;42.648;23.292;2023-07-31T03:41:38;24.73;;;21.80;;
30934;SDS011;51033;42.648;23.292;2023-07-31T03:44:03;25.88;;;22.40;;
30934;SDS011;51033;42.648;23.292;2023-07-31T03:46:29;24.98;;;21.35;;
30934;SDS011;51033;42.648;23.292;2023-07-31T03:48:54;25.50;;;22.77;;
30934;SDS011;51033;42.648;23.292;2023-07-31T03:51:19;28.25;;;23.77;;
30934;SDS011;51033;42.648;23.292;2023-07-31T03:53:45;23.48;;;20.98;;
30934;SDS011;51033;42.648;23.292;2023-07-31T03:56:10;25.50;;;22.23;;
30934;SDS011;51033;42.648;23.292;2023-07-31T03:58:36;25.40;;;22.30;;
30934;SDS011;51033;42.648;23.292;2023-07-31T04:01:02;24.42;;;21.77;;
30934;SDS011;51033;42.648;23.292;2023-07-31T04:03:28;27.35;;;22.17;;
30934;SDS011;51033;42.648;23.292;2023-07-31T04:05:54;25.55;;;21.90;;
30934;SDS011;51033;42.648;23.292;2023-07-31T04:08:21;25.80;;;22.10;;
30934;SDS011;51033;42.648;23.292;2023-07-31T04:10:47;24.55;;;21.85;;
30934;SDS011;51033;42.648;23.292;2023-07-31T04:13:12;26.52;;;21.48;;
30934;SDS011;51033;42.648;23.292;2023-07-31T04:15:37;23.63;;;21.13;;
30934;SDS011;51033;42.648;23.292;2023-07-31T04:18:04;24.42;;;20.95;;
30934;SDS011;51033;42.648;23.292;2023-07-31T04:20:30;29.30;;;21.92;;
30934;SDS011;51033;42.648;23.292;2023-07-31T04:22:55;25.30;;;21.60;;
30934;SDS011;51033;42.648;23.292;2023-07-31T04:25:21;22.83;;;19.95;;
30934;SDS011;51033;42.648;23.292;2023-07-31T04:27:46;26.48;;;19.92;;
30934;SDS011;51033;42.648;23.292;2023-07-31T04:30:12;24.90;;;20.95;;
30934;SDS011;51033;42.648;23.292;2023-07-31T04:32:37;24.77;;;21.08;;
30934;SDS011;51033;42.648;23.292;2023-07-31T04:35:03;23.35;;;19.40;;
30934;SDS011;51033;42.648;23.292;2023-07-31T04:37:28;19.63;;;17.58;;
30934;SDS011;51033;42.648;23.292;2023-07-31T04:39:54;21.73;;;18.85;;
30934;SDS011;51033;42.648;23.292;2023-07-31T04:42:19;20.05;;;17.90;;
30934;SDS011;51033;42.648;23.292;2023-07-31T04:44:45;19.90;;;17.77;;
30934;SDS011;51033;42.648;23.292;2023-07-31T04:47:10;20.67;;;18.15;;
30934;SDS011;51033;42.648;23.292;2023-07-31T04:49:36;21.20;;;18.83;;
30934;SDS011;51033;42.648;23.292;2023-07-31T04:52:01;24.20;;;19.48;;
30934;SDS011;51033;42.648;23.292;2023-07-31T04:54:27;21.73;;;19.27;;
30934;SDS011;51033;42.648;23.292;2023-07-31T04:56:52;20.15;;;17.67;;
30934;SDS011;51033;42.648;23.292;2023-07-31T04:59:18;19.38;;;16.75;;
30934;SDS011;51033;42.648;23.292;2023-07-31T05:01:43;20.13;;;17.90;;
30934;SDS011;51033;42.648;23.292;2023-07-31T05:04:12;20.33;;;17.92;;
30934;SDS011;51033;42.648;23.292;2023-07-31T05:06:38;20.42;;;18.20;;
30934;SDS011;51033;42.648;23.292;2023-07-31T05:09:03;19.63;;;17.33;;
30934;SDS011;51033;42.648;23.292;2023-07-31T05:11:29;18.92;;;16.77;;
30934;SDS011;51033;42.648;23.292;2023-07-31T05:13:54;19.55;;;17.58;;
30934;SDS011;51033;42.648;23.292;2023-07-31T05:16:19;15.90;;;14.30;;
30934;SDS011;51033;42.648;23.292;2023-07-31T05:18:45;15.40;;;13.57;;
30934;SDS011;51033;42.648;23.292;2023-07-31T05:21:10;16.48;;;14.80;;
30934;SDS011;51033;42.648;23.292;2023-07-31T05:23:36;18.13;;;15.15;;
30934;SDS011;51033;42.648;23.292;2023-07-31T05:26:04;17.42;;;14.93;;
30934;SDS011;51033;42.648;23.292;2023-07-31T05:28:30;15.73;;;14.02;;
30934;SDS011;51033;42.648;23.292;2023-07-31T05:30:59;15.38;;;13.68;;
30934;SDS011;51033;42.648;23.292;2023-07-31T05:33:26;16.70;;;14.07;;
30934;SDS011;51033;42.648;23.292;2023-07-31T05:35:52;15.07;;;13.48;;
30934;SDS011;51033;42.648;23.292;2023-07-31T05:38:18;15.23;;;13.63;;
30934;SDS011;51033;42.648;23.292;2023-07-31T05:40:43;13.55;;;12.07;;
30934;SDS011;51033;42.648;23.292;2023-07-31T05:43:08;13.25;;;11.88;;
30934;SDS011;51033;42.648;23.292;2023-07-31T05:45:34;13.88;;;11.95;;
30934;SDS011;51033;42.648;23.292;2023-07-31T05:48:00;13.98;;;12.60;;
30934;SDS011;51033;42.648;23.292;2023-07-31T05:50:25;14.75;;;13.00;;
30934;SDS011;51033;42.648;23.292;2023-07-31T05:52:51;13.43;;;11.65;;
30934;SDS011;51033;42.648;23.292;2023-07-31T05:55:17;12.50;;;10.82;;
30934;SDS011;51033;42.648;23.292;2023-07-31T05:57:42;12.02;;;10.73;;
30934;SDS011;51033;42.648;23.292;2023-07-31T06:00:08;11.57;;;10.30;;
30934;SDS011;51033;42.648;23.292;2023-07-31T06:02:34;9.80;;;8.80;;
30934;SDS011;51033;42.648;23.292;2023-07-31T06:05:01;10.65;;;9.27;;
30934;SDS011;51033;42.648;23.292;2023-07-31T06:07:29;10.70;;;9.60;;
30934;SDS011;51033;42.648;23.292;2023-07-31T06:09:54;10.80;;;9.70;;
30934;SDS011;51033;42.648;23.292;2023-07-31T06:12:20;10.40;;;8.70;;
30934;SDS011;51033;42.648;23.292;2023-07-31T06:14:46;10.85;;;8.93;;
30934;SDS011;51033;42.648;23.292;2023-07-31T06:17:11;11.73;;;8.77;;
30934;SDS011;51033;42.648;23.292;2023-07-31T06:19:36;7.32;;;6.63;;
30934;SDS011;51033;42.648;23.292;2023-07-31T06:22:02;6.70;;;6.03;;
30934;SDS011;51033;42.648;23.292;2023-07-31T06:24:28;7.82;;;6.88;;
30934;SDS011;51033;42.648;23.292;2023-07-31T06:26:53;7.70;;;6.90;;
30934;SDS011;51033;42.648;23.292;2023-07-31T06:29:19;7.25;;;6.18;;
30934;SDS011;51033;42.648;23.292;2023-07-31T06:31:44;6.47;;;5.88;;
30934;SDS011;51033;42.648;23.292;2023-07-31T06:34:09;5.28;;;4.78;;
30934;SDS011;51033;42.648;23.292;2023-07-31T06:36:35;8.13;;;4.60;;
30934;SDS011;51033;42.648;23.292;2023-07-31T06:39:00;5.68;;;4.22;;
30934;SDS011;51033;42.648;23.292;2023-07-31T06:41:26;5.85;;;4.18;;
30934;SDS011;51033;42.648;23.292;2023-07-31T06:43:51;4.80;;;4.40;;
30934;SDS011;51033;42.648;23.292;2023-07-31T06:46:16;5.60;;;4.22;;
30934;SDS011;51033;42.648;23.292;2023-07-31T06:48:42;4.78;;;4.38;;
30934;SDS011;51033;42.648;23.292;2023-07-31T06:51:07;5.63;;;4.00;;
30934;SDS011;51033;42.648;23.292;2023-07-31T06:53:33;5.38;;;3.95;;
30934;SDS011;51033;42.648;23.292;2023-07-31T06:55:58;4.65;;;4.25;;
30934;SDS011;51033;42.648;23.292;2023-07-31T06:58:23;5.72;;;3.85;;
30934;SDS011;51033;42.648;23.292;2023-07-31T07:00:49;4.32;;;3.85;;
30934;SDS011;51033;42.648;23.292;2023-07-31T07:03:17;4.70;;;4.30;;
30934;SDS011;51033;42.648;23.292;2023-07-31T07:05:43;5.20;;;3.78;;
30934;SDS011;51033;42.648;23.292;2023-07-31T07:08:09;4.07;;;3.15;;
30934;SDS011;51033;42.648;23.292;2023-07-31T07:10:34;7.82;;;3.30;;
30934;SDS011;51033;42.648;23.292;2023-07-31T07:13:00;4.28;;;3.05;;
30934;SDS011;51033;42.648;23.292;2023-07-31T07:15:25;3.70;;;3.10;;
30934;SDS011;51033;42.648;23.292;2023-07-31T07:17:51;3.00;;;2.50;;
30934;SDS011;51033;42.648;23.292;2023-07-31T07:20:16;4.95;;;2.60;;
30934;SDS011;51033;42.648;23.292;2023-07-31T07:22:41;7.78;;;2.72;;
30934;SDS011;51033;42.648;23.292;2023-07-31T07:25:10;2.88;;;2.58;;
30934;SDS011;51033;42.648;23.292;2023-07-31T07:27:36;10.15;;;2.80;;
30934;SDS011;51033;42.648;23.292;2023-07-31T07:30:05;2.97;;;2.30;;
30934;SDS011;51033;42.648;23.292;2023-07-31T07:32:31;3.75;;;2.75;;
30934;SDS011;51033;42.648;23.292;2023-07-31T07:34:56;2.90;;;2.60;;
30934;SDS011;51033;42.648;23.292;2023-07-31T07:37:24;3.75;;;2.63;;
30934;SDS011;51033;42.648;23.292;2023-07-31T07:39:52;2.60;;;2.35;;
30934;SDS011;51033;42.648;23.292;2023-07-31T07:42:17;2.75;;;2.35;;
30934;SDS011;51033;42.648;23.292;2023-07-31T07:44:43;5.45;;;2.63;;
30934;SDS011;51033;42.648;23.292;2023-07-31T07:47:08;3.25;;;2.95;;
30934;SDS011;51033;42.648;23.292;2023-07-31T07:49:36;3.40;;;2.50;;
30934;SDS011;51033;42.648;23.292;2023-07-31T07:52:01;4.10;;;3.10;;
30934;SDS011;51033;42.648;23.292;2023-07-31T07:54:27;5.35;;;2.85;;
30934;SDS011;51033;42.648;23.292;2023-07-31T07:56:53;4.38;;;2.70;;
30934;SDS011;51033;42.648;23.292;2023-07-31T07:59:18;4.47;;;3.05;;
30934;SDS011;51033;42.648;23.292;2023-07-31T08:01:43;2.85;;;1.92;;
30934;SDS011;51033;42.648;23.292;2023-07-31T08:04:09;5.45;;;3.05;;
30934;SDS011;51033;42.648;23.292;2023-07-31T08:06:34;2.58;;;2.20;;
30934;SDS011;51033;42.648;23.292;2023-07-31T08:09:00;3.33;;;2.33;;
30934;SDS011;51033;42.648;23.292;2023-07-31T08:11:30;2.78;;;2.58;;
30934;SDS011;51033;42.648;23.292;2023-07-31T08:13:56;3.28;;;2.75;;
30934;SDS011;51033;42.648;23.292;2023-07-31T08:16:21;5.45;;;2.70;;
30934;SDS011;51033;42.648;23.292;2023-07-31T08:18:47;4.82;;;2.75;;
30934;SDS011;51033;42.648;23.292;2023-07-31T08:21:13;4.70;;;2.83;;
30934;SDS011;51033;42.648;23.292;2023-07-31T08:23:40;3.63;;;2.45;;
30934;SDS011;51033;42.648;23.292;2023-07-31T08:26:06;2.75;;;2.30;;
30934;SDS011;51033;42.648;23.292;2023-07-31T08:28:32;2.50;;;2.28;;
30934;SDS011;51033;42.648;23.292;2023-07-31T08:30:57;3.35;;;2.22;;
30934;SDS011;51033;42.648;23.292;2023-07-31T08:33:23;2.92;;;2.22;;
30934;SDS011;51033;42.648;23.292;2023-07-31T08:35:48;3.42;;;2.78;;
30934;SDS011;51033;42.648;23.292;2023-07-31T08:38:14;3.85;;;2.10;;
30934;SDS011;51033;42.648;23.292;2023-07-31T08:40:39;4.10;;;2.17;;
30934;SDS011;51033;42.648;23.292;2023-07-31T08:43:05;2.72;;;2.17;;
30934;SDS011;51033;42.648;23.292;2023-07-31T08:45:30;2.83;;;2.15;;
30934;SDS011;51033;42.648;23.292;2023-07-31T08:47:57;2.63;;;2.22;;
30934;SDS011;51033;42.648;23.292;2023-07-31T08:50:25;2.22;;;1.92;;
30934;SDS011;51033;42.648;23.292;2023-07-31T08:52:51;2.85;;;2.47;;
30934;SDS011;51033;42.648;23.292;2023-07-31T08:55:17;5.13;;;2.55;;
30934;SDS011;51033;42.648;23.292;2023-07-31T08:57:48;3.55;;;2.45;;
30934;SDS011;51033;42.648;23.292;2023-07-31T09:00:15;25.83;;;3.00;;
30934;SDS011;51033;42.648;23.292;2023-07-31T09:05:26;1.92;;;1.70;;
30934;SDS011;51033;42.648;23.292;2023-07-31T09:07:52;4.45;;;2.10;;
30934;SDS011;51033;42.648;23.292;2023-07-31T09:10:20;5.20;;;2.60;;
30934;SDS011;51033;42.648;23.292;2023-07-31T09:12:45;2.63;;;2.05;;
30934;SDS011;51033;42.648;23.292;2023-07-31T09:15:11;2.30;;;2.10;;
30934;SDS011;51033;42.648;23.292;2023-07-31T09:17:37;2.42;;;2.10;;
30934;SDS011;51033;42.648;23.292;2023-07-31T09:20:18;2.17;;;1.95;;
30934;SDS011;51033;42.648;23.292;2023-07-31T09:22:46;3.72;;;2.38;;
30934;SDS011;51033;42.648;23.292;2023-07-31T09:30:15;4.38;;;2.50;;
30934;SDS011;51033;42.648;23.292;2023-07-31T09:32:43;3.78;;;2.55;;
30934;SDS011;51033;42.648;23.292;2023-07-31T09:35:27;2.92;;;2.65;;
30934;SDS011;51033;42.648;23.292;2023-07-31T09:37:58;4.63;;;2.45;;
30934;SDS011;51033;42.648;23.292;2023-07-31T09:40:25;4.15;;;2.60;;
30934;SDS011;51033;42.648;23.292;2023-07-31T09:42:52;3.78;;;2.90;;
30934;SDS011;51033;42.648;23.292;2023-07-31T09:45:19;5.80;;;2.25;;
30934;SDS011;51033;42.648;23.292;2023-07-31T09:47:48;4.35;;;2.38;;
30934;SDS011;51033;42.648;23.292;2023-07-31T09:50:14;3.05;;;2.45;;
30934;SDS011;51033;42.648;23.292;2023-07-31T09:52:40;2.67;;;2.20;;
30934;SDS011;51033;42.648;23.292;2023-07-31T09:55:06;13.52;;;3.20;;
30934;SDS011;51033;42.648;23.292;2023-07-31T09:57:31;3.30;;;2.22;;
30934;SDS011;51033;42.648;23.292;2023-07-31T09:59:58;2.85;;;2.28;;
30934;SDS011;51033;42.648;23.292;2023-07-31T10:02:24;2.72;;;2.13;;
30934;SDS011;51033;42.648;23.292;2023-07-31T10:04:50;4.45;;;2.40;;
30934;SDS011;51033;42.648;23.292;2023-07-31T10:07:20;2.20;;;2.00;;
30934;SDS011;51033;42.648;23.292;2023-07-31T10:09:50;4.63;;;2.35;;
30934;SDS011;51033;42.648;23.292;2023-07-31T10:12:19;2.50;;;1.83;;
30934;SDS011;51033;42.648;23.292;2023-07-31T10:14:47;14.00;;;2.35;;
30934;SDS011;51033;42.648;23.292;2023-07-31T10:17:12;5.15;;;2.00;;
30934;SDS011;51033;42.648;23.292;2023-07-31T10:19:39;4.20;;;2.45;;
30934;SDS011;51033;42.648;23.292;2023-07-31T10:22:07;2.55;;;2.08;;
30934;SDS011;51033;42.648;23.292;2023-07-31T10:24:33;4.00;;;1.95;;
30934;SDS011;51033;42.648;23.292;2023-07-31T10:27:00;2.63;;;2.03;;
30934;SDS011;51033;42.648;23.292;2023-07-31T10:29:28;3.92;;;1.80;;
30934;SDS011;51033;42.648;23.292;2023-07-31T10:31:55;6.28;;;2.35;;
30934;SDS011;51033;42.648;23.292;2023-07-31T10:34:22;2.05;;;1.75;;
30934;SDS011;51033;42.648;23.292;2023-07-31T10:36:48;3.90;;;1.70;;
30934;SDS011;51033;42.648;23.292;2023-07-31T10:39:33;2.20;;;1.48;;
30934;SDS011;51033;42.648;23.292;2023-07-31T10:42:10;4.28;;;2.00;;
30934;SDS011;51033;42.648;23.292;2023-07-31T10:44:46;4.20;;;1.90;;
30934;SDS011;51033;42.648;23.292;2023-07-31T10:47:14;2.10;;;1.60;;
30934;SDS011;51033;42.648;23.292;2023-07-31T10:49:40;2.25;;;1.60;;
30934;SDS011;51033;42.648;23.292;2023-07-31T10:52:12;1.90;;;1.55;;
30934;SDS011;51033;42.648;23.292;2023-07-31T10:54:39;3.33;;;2.08;;
30934;SDS011;51033;42.648;23.292;2023-07-31T10:57:20;2.42;;;1.92;;
30934;SDS011;51033;42.648;23.292;2023-07-31T10:59:47;1.95;;;1.75;;
30934;SDS011;51033;42.648;23.292;2023-07-31T11:02:26;2.53;;;1.55;;
30934;SDS011;51033;42.648;23.292;2023-07-31T11:05:08;1.98;;;1.70;;
30934;SDS011;51033;42.648;23.292;2023-07-31T11:07:50;2.33;;;1.50;;
30934;SDS011;51033;42.648;23.292;2023-07-31T11:10:16;3.25;;;1.30;;
30934;SDS011;51033;42.648;23.292;2023-07-31T11:12:43;1.60;;;1.20;;
30934;SDS011;51033;42.648;23.292;2023-07-31T11:15:10;1.73;;;1.33;;
30934;SDS011;51033;42.648;23.292;2023-07-31T11:17:39;1.60;;;1.20;;
30934;SDS011;51033;42.648;23.292;2023-07-31T11:20:05;1.85;;;1.35;;
30934;SDS011;51033;42.648;23.292;2023-07-31T11:22:32;3.08;;;1.30;;
30934;SDS011;51033;42.648;23.292;2023-07-31T11:24:59;1.75;;;1.40;;
30934;SDS011;51033;42.648;23.292;2023-07-31T11:27:27;2.40;;;1.80;;
30934;SDS011;51033;42.648;23.292;2023-07-31T11:29:59;2.35;;;1.40;;
30934;SDS011;51033;42.648;23.292;2023-07-31T11:32:25;3.55;;;1.42;;
30934;SDS011;51033;42.648;23.292;2023-07-31T11:34:54;1.90;;;1.50;;
30934;SDS011;51033;42.648;23.292;2023-07-31T11:37:20;1.25;;;1.08;;
30934;SDS011;51033;42.648;23.292;2023-07-31T11:40:00;3.45;;;1.73;;
30934;SDS011;51033;42.648;23.292;2023-07-31T11:42:26;1.40;;;1.30;;
30934;SDS011;51033;42.648;23.292;2023-07-31T11:44:51;3.13;;;1.90;;
30934;SDS011;51033;42.648;23.292;2023-07-31T11:47:17;4.43;;;1.98;;
30934;SDS011;51033;42.648;23.292;2023-07-31T11:49:43;2.15;;;1.80;;
30934;SDS011;51033;42.648;23.292;2023-07-31T11:52:09;3.53;;;1.90;;
30934;SDS011;51033;42.648;23.292;2023-07-31T11:54:36;2.95;;;2.40;;
30934;SDS011;51033;42.648;23.292;2023-07-31T11:57:01;1.60;;;1.50;;
30934;SDS011;51033;42.648;23.292;2023-07-31T11:59:28;6.85;;;2.40;;
30934;SDS011;51033;42.648;23.292;2023-07-31T12:01:53;2.50;;;2.30;;
30934;SDS011;51033;42.648;23.292;2023-07-31T12:04:20;3.10;;;1.75;;
30934;SDS011;51033;42.648;23.292;2023-07-31T12:06:52;2.15;;;1.92;;
30934;SDS011;51033;42.648;23.292;2023-07-31T12:09:18;2.92;;;2.42;;
30934;SDS011;51033;42.648;23.292;2023-07-31T12:11:44;3.25;;;2.63;;
30934;SDS011;51033;42.648;23.292;2023-07-31T12:16:52;3.63;;;2.30;;
30934;SDS011;51033;42.648;23.292;2023-07-31T12:19:20;4.22;;;3.08;;
30934;SDS011;51033;42.648;23.292;2023-07-31T12:21:46;7.72;;;3.88;;
30934;SDS011;51033;42.648;23.292;2023-07-31T12:24:11;3.70;;;3.17;;
30934;SDS011;51033;42.648;23.292;2023-07-31T12:26:37;3.47;;;3.17;;
30934;SDS011;51033;42.648;23.292;2023-07-31T12:29:05;3.30;;;3.00;;
30934;SDS011;51033;42.648;23.292;2023-07-31T12:31:33;5.10;;;4.60;;
30934;SDS011;51033;42.648;23.292;2023-07-31T12:33:59;5.45;;;4.88;;
30934;SDS011;51033;42.648;23.292;2023-07-31T12:36:24;6.47;;;5.57;;
30934;SDS011;51033;42.648;23.292;2023-07-31T12:38:51;5.50;;;5.00;;
30934;SDS011;51033;42.648;23.292;2023-07-31T12:41:17;5.90;;;5.28;;
30934;SDS011;51033;42.648;23.292;2023-07-31T12:43:43;5.70;;;5.13;;
30934;SDS011;51033;42.648;23.292;2023-07-31T12:46:14;5.32;;;4.55;;
30934;SDS011;51033;42.648;23.292;2023-07-31T12:48:42;5.18;;;4.68;;
30934;SDS011;51033;42.648;23.292;2023-07-31T12:51:07;5.82;;;4.75;;
30934;SDS011;51033;42.648;23.292;2023-07-31T12:53:33;6.50;;;4.80;;
30934;SDS011;51033;42.648;23.292;2023-07-31T12:55:58;5.30;;;4.80;;
30934;SDS011;51033;42.648;23.292;2023-07-31T12:58:24;6.13;;;4.80;;
30934;SDS011;51033;42.648;23.292;2023-07-31T13:00:50;6.13;;;5.50;;
30934;SDS011;51033;42.648;23.292;2023-07-31T13:03:15;6.70;;;6.10;;
30934;SDS011;51033;42.648;23.292;2023-07-31T13:05:41;6.53;;;5.80;;
30934;SDS011;51033;42.648;23.292;2023-07-31T13:08:06;5.90;;;5.40;;
30934;SDS011;51033;42.648;23.292;2023-07-31T13:10:32;5.80;;;5.18;;
30934;SDS011;51033;42.648;23.292;2023-07-31T13:12:58;6.07;;;5.55;;
30934;SDS011;51033;42.648;23.292;2023-07-31T13:15:23;5.90;;;5.40;;
30934;SDS011;51033;42.648;23.292;2023-07-31T13:17:48;7.35;;;6.43;;
30934;SDS011;51033;42.648;23.292;2023-07-31T13:20:14;5.28;;;4.78;;
30934;SDS011;51033;42.648;23.292;2023-07-31T13:22:39;6.18;;;5.57;;
30934;SDS011;51033;42.648;23.292;2023-07-31T13:25:05;5.63;;;5.13;;
30934;SDS011;51033;42.648;23.292;2023-07-31T13:27:32;6.65;;;5.60;;
30934;SDS011;51033;42.648;23.292;2023-07-31T13:29:57;6.18;;;5.35;;
30934;SDS011;51033;42.648;23.292;2023-07-31T13:32:23;5.15;;;4.75;;
30934;SDS011;51033;42.648;23.292;2023-07-31T13:34:49;4.93;;;4.43;;
30934;SDS011;51033;42.648;23.292;2023-07-31T13:37:14;6.68;;;4.28;;
30934;SDS011;51033;42.648;23.292;2023-07-31T13:39:40;4.68;;;4.25;;
30934;SDS011;51033;42.648;23.292;2023-07-31T13:42:07;5.90;;;4.15;;
30934;SDS011;51033;42.648;23.292;2023-07-31T13:44:36;4.05;;;3.65;;
30934;SDS011;51033;42.648;23.292;2023-07-31T13:47:05;5.95;;;4.40;;
30934;SDS011;51033;42.648;23.292;2023-07-31T13:49:31;7.70;;;4.15;;
30934;SDS011;51033;42.648;23.292;2023-07-31T13:51:57;10.82;;;4.07;;
30934;SDS011;51033;42.648;23.292;2023-07-31T13:54:23;4.30;;;3.85;;
30934;SDS011;51033;42.648;23.292;2023-07-31T13:56:48;3.83;;;3.35;;
30934;SDS011;51033;42.648;23.292;2023-07-31T13:59:14;5.38;;;4.00;;
30934;SDS011;51033;42.648;23.292;2023-07-31T14:01:45;5.38;;;4.10;;
30934;SDS011;51033;42.648;23.292;2023-07-31T14:04:11;6.38;;;4.25;;
30934;SDS011;51033;42.648;23.292;2023-07-31T14:06:36;5.50;;;3.55;;
30934;SDS011;51033;42.648;23.292;2023-07-31T14:09:02;5.43;;;3.58;;
30934;SDS011;51033;42.648;23.292;2023-07-31T14:11:28;3.75;;;3.35;;
30934;SDS011;51033;42.648;23.292;2023-07-31T14:13:54;5.53;;;4.22;;
30934;SDS011;51033;42.648;23.292;2023-07-31T14:16:21;5.75;;;4.60;;
30934;SDS011;51033;42.648;23.292;2023-07-31T14:18:48;5.20;;;3.75;;
30934;SDS011;51033;42.648;23.292;2023-07-31T14:21:13;4.28;;;3.97;;
30934;SDS011;51033;42.648;23.292;2023-07-31T14:23:39;10.40;;;4.38;;
30934;SDS011;51033;42.648;23.292;2023-07-31T14:26:05;4.00;;;3.60;;
30934;SDS011;51033;42.648;23.292;2023-07-31T14:28:30;5.53;;;3.53;;
30934;SDS011;51033;42.648;23.292;2023-07-31T14:30:56;5.57;;;3.53;;
30934;SDS011;51033;42.648;23.292;2023-07-31T14:33:21;6.07;;;3.65;;
30934;SDS011;51033;42.648;23.292;2023-07-31T14:35:46;5.65;;;3.03;;